BWI weather

Baltimore/Washington International Thurgood Marshall Airport
Baltimore, Maryland, United States

Public forecast

Using degrees Fahrenheit for public forecast. Weather courtesy of forecast.io.

METAR (pilot weather report)

Retrieved 2018/04/24 19:54 UTC (30 minutes ago):

KBWI 241954Z 12013KT 10SM BKN045 OVC065 17/09 A3013 RMK AO2 SLP203 T01670089

TAF (pilot weather forecast)

Retrieved 2018/04/24 18:30 UTC (2 hours ago):

TAF KBWI 241728Z 2418/2524 12016G24KT P6SM OVC060 FM242300 10012G22KT 5SM -RA OVC025 FM250200 09012G19KT 5SM -RA OVC008 FM250300 08012KT 5SM -RA OVC008 FM251200 05005KT P6SM OVC010 FM251700 34005KT P6SM BKN015 FM252000 32007KT P6SM OVC025